Boston, Massachusetts
Traffic Map
Current Weather Conditions
Boston, Massachusetts
Overcast Light Rain
Overcast
49°
Feels Like: 44°
Wind Chill: 44° Ceiling: 600
Heat Index: 49° Visibility: 2mi
Dew Point: 48° Wind: 13mph
Humidity: 97% Direction: 360° (N)
Pressure: 29.48in Gusts: 0mph
Raw Report DataKBOS 261154Z 36011KT 2SM -RA BR OVC006 09/09 A2948 RMK AO2 SFC VIS 3 SLP982 P0001 60033 70113 T00940089 10106 20094 58002
Traffic Incident Summary
Active as of:
Severity:
Category:
InformationThere was an issue retrieving the traffic information for this location. Please try a different location or try again shortly.
Advertisements
Track Severe Weather on mobile